首页
METAR-TAF:

METAR-TAF

机场 :

阿爾及爾, 阿尔及利亚

阿尔及尔胡阿里·布迈丁机场

纬度: 36-43N, 经度: 003-15E, 海拔: 25米

当前天气观测

该预报发布于21分钟前的22:00 UTC
风速2节,风向西
温度 16°C
湿度 94%
气压 1015 hPa
能見度: 7000
少量云层高于2000英尺
少量云层高于3000英尺, 积雨云.
散云层高于5000英尺

METAR: DAAG 252200Z 27002KT 7000 FEW020 FEW030CB SCT050 16/15 Q1015

时间: 23:21 (22:21 UTC)

预报

该预报发布于5小时和21分钟前的17:00 UTC
预报有效从25日的 18点(UTC)到 26日的 18点(UTC)
风速8节,风向北转东北
能見度: 8000
少量云层高于2000英尺
少量云层高于3000英尺, 积雨云.
多云层高于4600英尺
短暂存在
从 25日的 18点(UTC)到 26日的 06点(UTC)
能見度: 5000
少量云层高于2300英尺, 塔状积云.
少量云层高于3000英尺, 积雨云.
雷暴, 小雨
几率 40% :
短暂存在
从 25日的 21点(UTC)到 26日的 03点(UTC)
风速15节,风向东转东北,有时为30节阵风
能見度: 3000
多云层高于1500英尺
散云层高于2300英尺, 塔状积云.
少量云层高于2600英尺, 积雨云.
雷暴, 雨

TAF: DAAG 251700Z 2518/2618 02008KT 8000 FEW020 FEW030CB BKN046 TEMPO 2518/2606 5000 -TSRA FEW023TCU FEW030CB PROB40 TEMPO 2521/2603 06015G30KT 3000 TSRA BKN015 SCT023TCU FEW026CB

超过4000个机场的气象观测和天气预报(METAR&TAF报告)。

可查询的气象台以黄色和红色小点在地图上表示。

将鼠标移到小点上方,可查看气象台名称。

然后点击查看天气观测和预报。

如需切换地图:点击带黑十字的绿色按钮放大地图;点击带横线的绿色按钮缩小地图;或者点击绿色箭头查看邻近地区的地图。


METAR-TAF: